Archival Weather

Chicago O'Hare International

Chicago, Illinois (KORD)

Report from: Thursday, December 15, 2022 11:51 PM CST
Current time: Friday, June 21, 2024 6:32 PM CDT

Current weather – Weather history – Daily summaries
Weather forecast

Temperature-0.6°C (30.9°F)
Wind chill-6.0°C (21.1°F)
Dew point-5.0°C (23.0°F)
Winds 11 kts (5.7 m/s, 12.7 mph) South-Southwest (210°)
Wind gusts 17 kts (8.7 m/s, 19.6 mph)
Visibility10 mi. (16.1 km)
Clouds Few clouds 2,000 ft. (610 m)
Ceiling: Broken clouds 2,400 ft. (732 m)
Overcast 3,500 ft. (1,067 m)
Altimeter29.64 in.Hg (1004 mB)
Precip last 3 hoursTrace
Relative humidity72 %
Density altitude-1,538 ft. (-469 m)
Sea-level pressure100.4 kPa (1004 mB, 29.66 in.Hg)
Max temp last 6 hours0.0°C (32.0°F)
Min temp last 6 hours-0.6°C (30.9°F)
Max temp last 24 hours3.3°C (37.9°F)
Min temp last 24 hours-0.6°C (30.9°F)
Remarks Automated weather observing station with precipitation discriminator
Pressure rising, then falling
Flight conditions Marginal Visual Meteorological Conditions
Raw dataKORD 160551Z 21011G17KT 10SM FEW020 BKN024 OVC035 M01/M05 A2964 RMK AO2 SLP044 60000 T10061050 10000 21006 400331006 50004
An error has occurred. This application may no longer respond until reloaded. Reload 🗙